createdAt,value
2023-04-07T00:00:18.765Z,5.70
2023-04-07T00:02:50.763Z,5.41
2023-04-07T00:05:22.800Z,5.25
2023-04-07T00:07:57.078Z,5.50
2023-04-07T00:10:28.894Z,5.52
2023-04-07T00:13:00.622Z,5.51
2023-04-07T00:15:32.157Z,5.40
2023-04-07T00:18:04.240Z,5.16
2023-04-07T00:20:35.714Z,5.29
2023-04-07T00:23:07.128Z,5.10
2023-04-07T00:25:38.466Z,5.00
2023-04-07T00:28:09.884Z,4.65
2023-04-07T00:30:41.448Z,4.99
2023-04-07T00:33:12.969Z,4.86
2023-04-07T00:35:44.949Z,4.99
2023-04-07T00:38:16.369Z,4.89
2023-04-07T00:40:47.713Z,5.01
2023-04-07T00:43:19.755Z,4.73
2023-04-07T00:45:52.209Z,4.85
2023-04-07T00:48:23.707Z,4.84
2023-04-07T00:50:55.189Z,4.76
2023-04-07T00:53:26.604Z,4.62
2023-04-07T00:55:58.426Z,4.71
2023-04-07T00:58:30.062Z,4.71
2023-04-07T01:01:13.465Z,4.78
2023-04-07T01:04:17.152Z,4.65
2023-04-07T01:06:53.331Z,4.54
2023-04-07T01:09:31.735Z,4.36
2023-04-07T01:12:10.286Z,4.33
2023-04-07T01:14:50.881Z,4.62
2023-04-07T01:17:26.065Z,4.52
2023-04-07T01:20:07.875Z,4.48
2023-04-07T01:22:55.501Z,4.42
2023-04-07T01:25:53.697Z,4.48
2023-04-07T01:28:56.274Z,4.28
2023-04-07T01:31:28.976Z,4.16
2023-04-07T01:34:03.102Z,4.28
2023-04-07T01:36:34.568Z,4.15
2023-04-07T01:39:08.074Z,4.33
2023-04-07T01:41:40.663Z,3.78
2023-04-07T01:44:13.849Z,4.19
2023-04-07T01:46:45.584Z,4.22
2023-04-07T01:49:18.373Z,4.27
2023-04-07T01:51:51.006Z,4.07
2023-04-07T01:54:23.374Z,4.07
2023-04-07T01:56:54.785Z,4.10
2023-04-07T01:59:26.386Z,3.90
2023-04-07T02:01:58.182Z,4.06
2023-04-07T02:04:47.456Z,3.99
2023-04-07T02:07:22.291Z,3.43
2023-04-07T02:09:57.951Z,3.85
2023-04-07T02:12:30.316Z,3.89
2023-04-07T02:15:03.742Z,3.50
2023-04-07T02:17:38.253Z,3.68
2023-04-07T02:20:11.960Z,3.79
2023-04-07T02:22:44.949Z,3.43
2023-04-07T02:25:30.277Z,3.25
2023-04-07T02:28:01.701Z,3.52
2023-04-07T02:30:33.555Z,3.67
2023-04-07T02:33:05.214Z,3.63
2023-04-07T02:35:36.541Z,3.63
2023-04-07T02:38:08.004Z,3.39
2023-04-07T02:40:39.743Z,3.48
2023-04-07T02:43:11.445Z,3.56
2023-04-07T02:45:42.881Z,3.05
2023-04-07T02:48:14.279Z,3.36
2023-04-07T02:50:45.596Z,3.03
2023-04-07T02:53:17.080Z,3.12
2023-04-07T02:55:48.451Z,3.18
2023-04-07T02:58:19.811Z,2.94
2023-04-07T03:00:51.192Z,3.22
2023-04-07T03:03:22.985Z,3.28
2023-04-07T03:05:54.577Z,3.18
2023-04-07T03:08:27.299Z,3.24
2023-04-07T03:10:58.899Z,3.14
2023-04-07T03:13:30.906Z,3.09
2023-04-07T03:16:02.564Z,3.23
2023-04-07T03:18:34.173Z,3.20
2023-04-07T03:21:05.628Z,3.04
2023-04-07T03:23:36.946Z,3.07
2023-04-07T03:26:08.756Z,2.98
2023-04-07T03:28:40.448Z,3.07
2023-04-07T03:31:11.888Z,2.90
2023-04-07T03:33:43.244Z,3.02
2023-04-07T03:36:14.679Z,2.93
2023-04-07T03:38:47.511Z,2.90
2023-04-07T03:41:18.805Z,2.83
2023-04-07T03:43:50.467Z,2.83
2023-04-07T03:46:22.323Z,2.92
2023-04-07T03:48:53.927Z,2.75
2023-04-07T03:51:25.219Z,2.79
2023-04-07T03:53:56.801Z,2.30
2023-04-07T03:56:29.047Z,2.75
2023-04-07T03:59:00.669Z,2.34
2023-04-07T04:01:32.166Z,2.64
2023-04-07T04:04:03.889Z,2.60
2023-04-07T04:06:35.565Z,2.49
2023-04-07T04:09:07.190Z,2.51
2023-04-07T04:11:38.686Z,2.44
2023-04-07T04:14:10.230Z,2.46
2023-04-07T04:16:41.626Z,2.29
2023-04-07T04:19:12.989Z,2.51
2023-04-07T04:21:44.500Z,2.17
2023-04-07T04:24:16.133Z,2.34
2023-04-07T04:26:47.452Z,1.99
2023-04-07T04:29:18.717Z,2.38
2023-04-07T04:31:50.102Z,2.25
2023-04-07T04:34:21.480Z,1.71
2023-04-07T04:36:53.054Z,2.18
2023-04-07T04:39:24.526Z,2.19
2023-04-07T04:41:56.695Z,2.18
2023-04-07T04:44:30.105Z,1.79
2023-04-07T04:47:01.661Z,2.26
2023-04-07T04:49:33.128Z,1.66
2023-04-07T04:52:04.983Z,1.76
2023-04-07T04:54:36.361Z,2.13
2023-04-07T04:57:07.759Z,1.99
2023-04-07T04:59:39.899Z,2.14
2023-04-07T05:02:11.304Z,1.72
2023-04-07T05:04:42.886Z,2.20
2023-04-07T05:07:14.409Z,2.39
2023-04-07T05:09:46.109Z,2.23
2023-04-07T05:12:17.651Z,2.25
2023-04-07T05:14:49.069Z,2.41
2023-04-07T05:17:20.613Z,2.20
2023-04-07T05:19:52.252Z,2.45
2023-04-07T05:22:23.871Z,2.52
2023-04-07T05:24:55.319Z,2.14
2023-04-07T05:27:27.210Z,2.67
2023-04-07T05:29:58.982Z,2.60
2023-04-07T05:32:30.468Z,2.66
2023-04-07T05:35:01.878Z,2.17
2023-04-07T05:37:33.252Z,2.78
2023-04-07T05:40:05.491Z,2.88
2023-04-07T05:42:36.885Z,2.98
2023-04-07T05:45:09.605Z,2.98
2023-04-07T05:47:41.999Z,3.63
2023-04-07T05:50:14.504Z,4.86
2023-04-07T05:52:46.351Z,5.76
2023-04-07T05:55:18.076Z,6.26
2023-04-07T05:57:49.490Z,6.37
2023-04-07T06:00:21.657Z,6.65
2023-04-07T06:02:54.418Z,6.81
2023-04-07T06:05:26.231Z,6.64
2023-04-07T06:07:57.676Z,6.39
2023-04-07T06:10:29.109Z,6.00
2023-04-07T06:13:01.004Z,5.74
2023-04-07T06:15:32.992Z,6.03
2023-04-07T06:18:04.552Z,6.03
2023-04-07T06:20:36.242Z,5.93
2023-04-07T06:23:07.631Z,5.92
2023-04-07T06:25:39.092Z,5.83
2023-04-07T06:28:10.699Z,5.80
2023-04-07T06:30:42.224Z,5.87
2023-04-07T06:33:13.633Z,5.52
2023-04-07T06:35:45.092Z,5.44
2023-04-07T06:38:16.559Z,5.43
2023-04-07T06:40:48.028Z,5.50
2023-04-07T06:43:19.509Z,6.03
2023-04-07T06:45:51.187Z,5.92
2023-04-07T06:48:23.321Z,5.65
2023-04-07T06:50:54.637Z,6.19
2023-04-07T06:53:26.139Z,6.35
2023-04-07T06:56:08.485Z,6.56
2023-04-07T06:58:40.475Z,6.51
2023-04-07T07:01:11.820Z,6.73
2023-04-07T07:03:43.357Z,6.93
2023-04-07T07:06:14.844Z,6.54
2023-04-07T07:08:46.222Z,7.18
2023-04-07T07:11:18.634Z,7.33
2023-04-07T07:13:50.310Z,7.40
2023-04-07T07:16:23.942Z,7.69
2023-04-07T07:18:55.400Z,7.48
2023-04-07T07:21:26.902Z,7.44
2023-04-07T07:23:58.248Z,7.42
2023-04-07T07:26:29.574Z,7.91
2023-04-07T07:29:01.028Z,7.36
2023-04-07T07:31:32.595Z,8.16
2023-04-07T07:34:04.067Z,8.02
2023-04-07T07:36:35.671Z,8.58
2023-04-07T07:39:07.239Z,8.61
2023-04-07T07:41:38.871Z,8.76
2023-04-07T07:44:10.567Z,8.40
2023-04-07T07:46:41.992Z,8.27
2023-04-07T07:49:13.438Z,8.79
2023-04-07T07:51:46.587Z,9.01
2023-04-07T07:54:17.974Z,9.17
2023-04-07T07:56:49.341Z,9.38
2023-04-07T07:59:21.487Z,9.44
2023-04-07T08:01:52.829Z,9.58
2023-04-07T08:04:24.711Z,9.78
2023-04-07T08:06:56.097Z,9.43
2023-04-07T08:09:27.483Z,9.41
2023-04-07T08:11:59.214Z,9.47
2023-04-07T08:14:30.692Z,9.85
2023-04-07T08:17:02.004Z,9.69
2023-04-07T08:19:33.440Z,10.12
2023-04-07T08:22:04.790Z,10.23
2023-04-07T08:24:36.205Z,10.28
2023-04-07T08:27:07.613Z,10.15
2023-04-07T08:29:39.120Z,10.06
2023-04-07T08:32:10.697Z,10.58
2023-04-07T08:34:42.012Z,10.86
2023-04-07T08:37:13.358Z,10.88
2023-04-07T08:39:44.647Z,10.57
2023-04-07T08:42:17.622Z,10.79
2023-04-07T08:44:51.918Z,11.04
2023-04-07T08:47:26.457Z,10.93
2023-04-07T08:50:01.505Z,11.38
2023-04-07T08:52:50.168Z,11.42
2023-04-07T08:55:21.559Z,11.56
2023-04-07T08:57:53.536Z,11.82
2023-04-07T09:00:25.181Z,11.69
2023-04-07T09:02:56.756Z,11.97
2023-04-07T09:05:29.717Z,12.13
2023-04-07T09:08:02.457Z,11.95
2023-04-07T09:10:33.845Z,12.10
2023-04-07T09:13:05.360Z,11.62
2023-04-07T09:15:38.618Z,11.88
2023-04-07T09:18:10.448Z,11.88
2023-04-07T09:21:01.914Z,11.69
2023-04-07T09:23:36.040Z,12.10
2023-04-07T09:26:28.318Z,12.14
2023-04-07T09:29:02.749Z,11.50
2023-04-07T09:31:45.974Z,11.91
2023-04-07T09:34:28.927Z,11.85
2023-04-07T09:37:01.323Z,11.81
2023-04-07T09:39:32.808Z,12.11
2023-04-07T09:42:07.963Z,12.01
2023-04-07T09:44:41.481Z,12.12
2023-04-07T09:47:13.091Z,12.44
2023-04-07T09:49:53.586Z,12.30
2023-04-07T09:52:54.049Z,12.54
2023-04-07T09:55:25.688Z,12.10
2023-04-07T09:57:57.604Z,12.49
2023-04-07T10:00:28.910Z,12.16
2023-04-07T10:03:00.843Z,12.51
2023-04-07T10:05:32.974Z,12.51
2023-04-07T10:08:06.496Z,12.48
2023-04-07T10:10:42.044Z,12.46
2023-04-07T10:13:13.667Z,12.19
2023-04-07T10:15:46.616Z,12.47
2023-04-07T10:18:21.096Z,12.49
2023-04-07T10:20:54.067Z,12.53
2023-04-07T10:23:32.678Z,12.30
2023-04-07T10:26:06.604Z,12.52
2023-04-07T10:28:41.208Z,12.76
2023-04-07T10:31:13.591Z,12.77
2023-04-07T10:33:53.274Z,12.60
2023-04-07T10:36:24.704Z,12.96
2023-04-07T10:39:08.221Z,13.08
2023-04-07T10:41:43.036Z,12.54
2023-04-07T10:44:39.113Z,12.85
2023-04-07T10:47:10.428Z,12.67
2023-04-07T10:50:14.484Z,12.83
2023-04-07T10:52:49.556Z,12.29
2023-04-07T10:55:53.986Z,12.77
2023-04-07T10:58:34.651Z,12.39
2023-04-07T11:01:06.048Z,13.02
2023-04-07T11:03:43.099Z,12.84
2023-04-07T11:06:14.648Z,13.04
2023-04-07T11:08:49.341Z,12.69
2023-04-07T11:11:39.036Z,13.14
2023-04-07T11:14:11.700Z,13.04
2023-04-07T11:16:45.828Z,13.14
2023-04-07T11:19:17.256Z,13.19
2023-04-07T11:21:49.184Z,12.70
2023-04-07T11:24:39.375Z,13.12
2023-04-07T11:27:14.364Z,13.07
2023-04-07T11:29:45.876Z,12.85
2023-04-07T11:32:26.028Z,12.87
2023-04-07T11:34:57.902Z,12.64
2023-04-07T11:37:29.520Z,12.66
2023-04-07T11:40:00.945Z,12.65
2023-04-07T11:42:33.600Z,12.64
2023-04-07T11:45:08.189Z,12.66
2023-04-07T11:47:40.645Z,12.47
2023-04-07T11:50:14.271Z,12.71
2023-04-07T11:52:48.693Z,12.78
2023-04-07T11:55:24.666Z,12.78
2023-04-07T11:58:05.155Z,12.77
2023-04-07T12:00:38.916Z,12.49
2023-04-07T12:03:16.203Z,12.26
2023-04-07T12:05:48.002Z,12.63
2023-04-07T12:08:21.360Z,12.56
2023-04-07T12:11:04.308Z,12.33
2023-04-07T12:13:43.841Z,12.83
2023-04-07T12:16:15.424Z,12.91
2023-04-07T12:18:46.899Z,13.03
2023-04-07T12:21:18.953Z,13.27
2023-04-07T12:23:50.798Z,13.33
2023-04-07T12:26:23.342Z,13.04
2023-04-07T12:28:56.535Z,13.45
2023-04-07T12:31:28.178Z,13.56
2023-04-07T12:34:03.177Z,13.63
2023-04-07T12:36:35.029Z,13.82
2023-04-07T12:39:06.413Z,13.70
2023-04-07T12:41:38.908Z,13.33
2023-04-07T12:44:10.421Z,13.73
2023-04-07T12:46:43.071Z,13.80
2023-04-07T12:49:14.576Z,13.65
2023-04-07T12:51:45.907Z,13.55
2023-04-07T12:54:17.229Z,13.54
2023-04-07T12:56:48.658Z,13.60
2023-04-07T12:59:20.342Z,13.54
2023-04-07T13:01:52.049Z,13.57
2023-04-07T13:04:24.782Z,13.42
2023-04-07T13:06:56.481Z,13.65
2023-04-07T13:09:28.088Z,13.63
2023-04-07T13:11:59.438Z,13.77
2023-04-07T13:14:30.789Z,13.79
2023-04-07T13:17:02.108Z,13.67
2023-04-07T13:19:34.410Z,13.71
2023-04-07T13:22:06.642Z,13.71
2023-04-07T13:24:38.022Z,13.77
2023-04-07T13:27:09.409Z,13.41
2023-04-07T13:29:40.765Z,13.72
2023-04-07T13:32:15.583Z,13.74
2023-04-07T13:34:47.038Z,13.69
2023-04-07T13:37:19.513Z,13.66
2023-04-07T13:39:52.378Z,13.68
2023-04-07T13:42:23.989Z,13.63
2023-04-07T13:44:55.427Z,13.51
2023-04-07T13:47:30.592Z,13.09
2023-04-07T13:50:03.378Z,13.40
2023-04-07T13:52:35.286Z,13.48
2023-04-07T13:55:07.380Z,13.31
2023-04-07T13:57:41.297Z,13.59
2023-04-07T14:00:14.360Z,13.54
2023-04-07T14:02:47.591Z,13.35
2023-04-07T14:05:19.104Z,13.18
2023-04-07T14:07:50.948Z,13.21
2023-04-07T14:10:23.630Z,12.86
2023-04-07T14:12:55.091Z,13.00
2023-04-07T14:15:26.450Z,13.30
2023-04-07T14:17:57.882Z,13.25
2023-04-07T14:20:29.466Z,13.20
2023-04-07T14:23:01.567Z,13.51
2023-04-07T14:25:32.978Z,13.55
2023-04-07T14:28:04.321Z,13.29
2023-04-07T14:30:38.627Z,13.46
2023-04-07T14:33:10.418Z,13.58
2023-04-07T14:35:41.938Z,13.24
2023-04-07T14:38:13.364Z,13.52
2023-04-07T14:40:45.262Z,13.42
2023-04-07T14:43:16.636Z,13.36
2023-04-07T14:45:48.114Z,12.99
2023-04-07T14:48:19.566Z,13.53
2023-04-07T14:51:02.237Z,13.52
2023-04-07T14:53:42.017Z,13.18
2023-04-07T14:56:13.452Z,13.41
2023-04-07T14:58:44.771Z,13.27
2023-04-07T15:01:16.476Z,13.00
2023-04-07T15:03:48.903Z,13.31
2023-04-07T15:06:21.896Z,13.34
2023-04-07T15:08:53.846Z,13.13
2023-04-07T15:11:26.168Z,13.14
2023-04-07T15:13:57.554Z,13.13
2023-04-07T15:16:29.132Z,13.05
2023-04-07T15:19:01.354Z,13.05
2023-04-07T15:21:32.826Z,13.14
2023-04-07T15:24:04.233Z,13.30
2023-04-07T15:26:35.573Z,13.51
2023-04-07T15:29:06.921Z,13.08
2023-04-07T15:31:38.294Z,13.18
2023-04-07T15:34:09.726Z,13.61
2023-04-07T15:36:41.102Z,13.26
2023-04-07T15:39:12.901Z,13.41
2023-04-07T15:41:44.219Z,13.49
2023-04-07T15:44:19.306Z,13.32
2023-04-07T15:46:50.898Z,13.48
2023-04-07T15:49:24.315Z,13.84
2023-04-07T15:51:57.760Z,13.86
2023-04-07T15:54:30.033Z,14.00
2023-04-07T15:57:01.375Z,13.57
2023-04-07T15:59:32.758Z,13.15
2023-04-07T16:02:04.226Z,12.87
2023-04-07T16:04:35.736Z,12.54
2023-04-07T16:07:07.062Z,12.34
2023-04-07T16:09:38.456Z,11.92
2023-04-07T16:12:09.801Z,11.64
2023-04-07T16:14:44.298Z,11.57
2023-04-07T16:17:15.701Z,11.50
2023-04-07T16:19:46.986Z,11.54
2023-04-07T16:22:18.437Z,11.07
2023-04-07T16:24:49.786Z,11.43
2023-04-07T16:27:21.255Z,11.31
2023-04-07T16:29:52.731Z,11.38
2023-04-07T16:32:24.192Z,11.31
2023-04-07T16:34:55.822Z,11.21
2023-04-07T16:37:27.241Z,11.13
2023-04-07T16:39:59.826Z,10.72
2023-04-07T16:42:31.286Z,10.99
2023-04-07T16:45:04.153Z,10.83
2023-04-07T16:47:37.513Z,10.19
2023-04-07T16:50:09.580Z,10.32
2023-04-07T16:52:41.124Z,10.14
2023-04-07T16:55:12.542Z,9.84
2023-04-07T16:57:44.001Z,9.90
2023-04-07T17:00:15.738Z,10.14
2023-04-07T17:02:47.180Z,9.58
2023-04-07T17:05:18.718Z,9.87
2023-04-07T17:07:50.154Z,9.93
2023-04-07T17:10:25.341Z,9.97
2023-04-07T17:12:56.730Z,9.76
2023-04-07T17:15:28.107Z,9.68
2023-04-07T17:18:01.819Z,9.65
2023-04-07T17:20:33.307Z,9.66
2023-04-07T17:23:05.412Z,9.51
2023-04-07T17:25:37.111Z,9.39
2023-04-07T17:28:08.599Z,9.39
2023-04-07T17:30:40.113Z,9.17
2023-04-07T17:33:13.539Z,8.53
2023-04-07T17:35:47.438Z,8.93
2023-04-07T17:38:19.325Z,8.93
2023-04-07T17:40:59.595Z,8.85
2023-04-07T17:43:31.766Z,8.74
2023-04-07T17:46:04.450Z,8.60
2023-04-07T17:48:35.939Z,8.19
2023-04-07T17:51:07.849Z,8.08
2023-04-07T17:53:40.028Z,8.32
2023-04-07T17:56:12.522Z,7.68
2023-04-07T17:58:45.504Z,7.90
2023-04-07T18:01:18.153Z,8.14
2023-04-07T18:03:49.795Z,7.88
2023-04-07T18:06:23.909Z,7.81
2023-04-07T18:08:55.574Z,7.69
2023-04-07T18:11:27.451Z,7.57
2023-04-07T18:13:58.846Z,7.17
2023-04-07T18:16:30.636Z,7.50
2023-04-07T18:19:03.073Z,7.52
2023-04-07T18:21:35.400Z,7.49
2023-04-07T18:24:06.847Z,7.27
2023-04-07T18:26:38.211Z,6.75
2023-04-07T18:29:14.562Z,7.04
2023-04-07T18:31:46.142Z,7.30
2023-04-07T18:34:17.638Z,7.21
2023-04-07T18:36:49.196Z,6.96
2023-04-07T18:39:20.980Z,6.54
2023-04-07T18:41:52.629Z,6.98
2023-04-07T18:44:25.343Z,6.96
2023-04-07T18:46:59.119Z,6.98
2023-04-07T18:49:31.267Z,6.85
2023-04-07T18:52:02.920Z,6.33
2023-04-07T18:54:37.503Z,6.73
2023-04-07T18:57:08.831Z,6.73
2023-04-07T18:59:40.307Z,6.69
2023-04-07T19:02:11.729Z,6.80
2023-04-07T19:04:44.728Z,6.56
2023-04-07T19:07:16.766Z,6.72
2023-04-07T19:09:51.880Z,6.23
2023-04-07T19:12:23.374Z,6.72
2023-04-07T19:14:56.376Z,6.78
2023-04-07T19:17:27.830Z,6.66
2023-04-07T19:19:59.224Z,6.80
2023-04-07T19:22:30.577Z,6.65
2023-04-07T19:25:02.040Z,6.60
2023-04-07T19:27:33.418Z,6.79
2023-04-07T19:30:05.960Z,6.93
2023-04-07T19:32:37.642Z,6.80
2023-04-07T19:35:10.603Z,6.89
2023-04-07T19:37:42.474Z,6.73
2023-04-07T19:40:15.235Z,6.85
2023-04-07T19:42:47.053Z,6.44
2023-04-07T19:45:18.931Z,6.75
2023-04-07T19:47:50.368Z,6.74
2023-04-07T19:50:21.918Z,6.20
2023-04-07T19:52:53.395Z,6.64
2023-04-07T19:55:25.514Z,6.62
2023-04-07T19:58:01.008Z,6.63
2023-04-07T20:00:39.454Z,6.20
2023-04-07T20:03:12.201Z,6.66
2023-04-07T20:05:43.900Z,6.76
2023-04-07T20:08:15.396Z,6.80
2023-04-07T20:10:47.024Z,6.28
2023-04-07T20:13:18.491Z,6.82
2023-04-07T20:15:49.901Z,6.70
2023-04-07T20:18:21.374Z,6.75
2023-04-07T20:21:01.337Z,6.62
2023-04-07T20:23:34.145Z,6.78
2023-04-07T20:26:06.955Z,6.68
2023-04-07T20:28:38.369Z,6.71
2023-04-07T20:31:10.093Z,6.48
2023-04-07T20:33:41.627Z,6.62
2023-04-07T20:36:13.426Z,6.67
2023-04-07T20:38:44.933Z,6.62
2023-04-07T20:41:19.046Z,6.63
2023-04-07T20:43:51.689Z,6.72
2023-04-07T20:46:23.566Z,6.29
2023-04-07T20:48:54.949Z,6.54
2023-04-07T20:51:26.312Z,6.20
2023-04-07T20:53:57.655Z,6.26
2023-04-07T20:56:29.407Z,6.50
2023-04-07T20:59:01.417Z,6.61
2023-04-07T21:01:33.183Z,6.60
2023-04-07T21:04:04.687Z,6.64
2023-04-07T21:06:36.144Z,6.06
2023-04-07T21:09:09.491Z,6.50
2023-04-07T21:11:40.874Z,6.57
2023-04-07T21:14:12.481Z,6.49
2023-04-07T21:16:43.903Z,6.50
2023-04-07T21:19:15.866Z,6.37
2023-04-07T21:21:47.527Z,6.43
2023-04-07T21:24:19.020Z,6.43
2023-04-07T21:26:53.115Z,6.41
2023-04-07T21:29:24.633Z,6.47
2023-04-07T21:31:56.109Z,6.46
2023-04-07T21:34:27.452Z,6.31
2023-04-07T21:36:59.127Z,6.32
2023-04-07T21:39:31.038Z,6.44
2023-04-07T21:42:02.661Z,6.33
2023-04-07T21:44:34.017Z,6.38
2023-04-07T21:47:05.632Z,6.42
2023-04-07T21:49:38.898Z,6.45
2023-04-07T21:52:10.506Z,6.41
2023-04-07T21:54:41.902Z,6.19
2023-04-07T21:57:13.759Z,6.55
2023-04-07T21:59:45.231Z,6.44
2023-04-07T22:02:16.694Z,6.41
2023-04-07T22:04:48.356Z,6.49
2023-04-07T22:07:20.098Z,6.56
2023-04-07T22:09:51.478Z,6.42
2023-04-07T22:12:22.868Z,6.24
2023-04-07T22:14:54.217Z,6.18
2023-04-07T22:17:25.991Z,6.47
2023-04-07T22:19:57.632Z,6.13
2023-04-07T22:22:29.232Z,6.48
2023-04-07T22:25:00.848Z,6.16
2023-04-07T22:27:32.465Z,6.46
2023-04-07T22:30:04.474Z,6.46
2023-04-07T22:32:36.765Z,6.62
2023-04-07T22:35:08.838Z,6.51
2023-04-07T22:37:40.226Z,6.53
2023-04-07T22:40:11.713Z,6.40
2023-04-07T22:42:43.570Z,6.51
2023-04-07T22:45:15.033Z,6.37
2023-04-07T22:47:46.637Z,6.25
2023-04-07T22:50:18.068Z,6.34
2023-04-07T22:52:49.392Z,6.18
2023-04-07T22:55:21.195Z,6.36
2023-04-07T22:57:53.247Z,6.31
2023-04-07T23:00:24.926Z,6.40
2023-04-07T23:02:56.424Z,6.29
2023-04-07T23:05:28.076Z,6.33
2023-04-07T23:07:59.575Z,6.09
2023-04-07T23:10:32.411Z,5.83
2023-04-07T23:13:03.776Z,5.88
2023-04-07T23:15:35.912Z,5.79
2023-04-07T23:18:07.332Z,6.27
2023-04-07T23:20:38.714Z,6.28
2023-04-07T23:23:10.068Z,6.25
2023-04-07T23:25:41.601Z,6.18
2023-04-07T23:28:13.004Z,6.09
2023-04-07T23:30:44.320Z,6.24
2023-04-07T23:33:15.698Z,6.27
2023-04-07T23:35:47.216Z,6.27
2023-04-07T23:38:18.589Z,6.21
2023-04-07T23:40:50.198Z,6.30
2023-04-07T23:43:21.809Z,6.29
2023-04-07T23:45:53.090Z,6.34
2023-04-07T23:48:26.162Z,6.10
2023-04-07T23:50:59.679Z,6.34
2023-04-07T23:53:31.005Z,6.32
2023-04-07T23:56:02.497Z,6.35
2023-04-07T23:58:33.769Z,6.47
